sensor_id;sensor_type;location;lat;lon;timestamp;P1;durP1;ratioP1;P2;durP2;ratioP2
50821;SDS011;36794;51.212;6.980;2022-12-18T00:01:37;9.10;;;5.50;;
50821;SDS011;36794;51.212;6.980;2022-12-18T00:04:04;13.30;;;5.60;;
50821;SDS011;36794;51.212;6.980;2022-12-18T00:06:30;11.40;;;6.30;;
50821;SDS011;36794;51.212;6.980;2022-12-18T00:08:56;13.97;;;5.73;;
50821;SDS011;36794;51.212;6.980;2022-12-18T00:11:23;11.93;;;6.00;;
50821;SDS011;36794;51.212;6.980;2022-12-18T00:13:50;12.80;;;6.57;;
50821;SDS011;36794;51.212;6.980;2022-12-18T00:16:19;15.87;;;6.60;;
50821;SDS011;36794;51.212;6.980;2022-12-18T00:18:46;13.30;;;6.13;;
50821;SDS011;36794;51.212;6.980;2022-12-18T00:21:13;11.67;;;5.63;;
50821;SDS011;36794;51.212;6.980;2022-12-18T00:23:40;10.67;;;6.00;;
50821;SDS011;36794;51.212;6.980;2022-12-18T00:26:09;13.20;;;6.83;;
50821;SDS011;36794;51.212;6.980;2022-12-18T00:28:35;10.77;;;5.93;;
50821;SDS011;36794;51.212;6.980;2022-12-18T00:31:05;10.97;;;5.40;;
50821;SDS011;36794;51.212;6.980;2022-12-18T00:33:31;10.03;;;5.33;;
50821;SDS011;36794;51.212;6.980;2022-12-18T00:36:01;10.97;;;5.20;;
50821;SDS011;36794;51.212;6.980;2022-12-18T00:38:27;8.83;;;5.23;;
50821;SDS011;36794;51.212;6.980;2022-12-18T00:40:53;11.60;;;6.27;;
50821;SDS011;36794;51.212;6.980;2022-12-18T00:43:19;13.70;;;5.43;;
50821;SDS011;36794;51.212;6.980;2022-12-18T00:45:45;10.73;;;5.40;;
50821;SDS011;36794;51.212;6.980;2022-12-18T00:48:11;10.33;;;5.83;;
50821;SDS011;36794;51.212;6.980;2022-12-18T00:50:37;14.10;;;6.57;;
50821;SDS011;36794;51.212;6.980;2022-12-18T00:53:03;12.70;;;5.30;;
50821;SDS011;36794;51.212;6.980;2022-12-18T00:55:29;13.30;;;6.07;;
50821;SDS011;36794;51.212;6.980;2022-12-18T00:57:55;11.63;;;5.90;;
50821;SDS011;36794;51.212;6.980;2022-12-18T01:00:21;11.13;;;5.70;;
50821;SDS011;36794;51.212;6.980;2022-12-18T01:02:47;12.43;;;6.30;;
50821;SDS011;36794;51.212;6.980;2022-12-18T01:05:13;10.80;;;5.43;;
50821;SDS011;36794;51.212;6.980;2022-12-18T01:07:39;12.93;;;6.30;;
50821;SDS011;36794;51.212;6.980;2022-12-18T01:10:06;11.07;;;5.67;;
50821;SDS011;36794;51.212;6.980;2022-12-18T01:12:33;11.73;;;5.87;;
50821;SDS011;36794;51.212;6.980;2022-12-18T01:14:59;11.60;;;5.77;;
50821;SDS011;36794;51.212;6.980;2022-12-18T01:17:25;10.43;;;5.93;;
50821;SDS011;36794;51.212;6.980;2022-12-18T01:19:51;12.03;;;5.80;;
50821;SDS011;36794;51.212;6.980;2022-12-18T01:22:17;12.17;;;5.67;;
50821;SDS011;36794;51.212;6.980;2022-12-18T01:24:43;12.00;;;5.47;;
50821;SDS011;36794;51.212;6.980;2022-12-18T01:27:09;11.57;;;5.83;;
50821;SDS011;36794;51.212;6.980;2022-12-18T01:29:35;13.17;;;6.50;;
50821;SDS011;36794;51.212;6.980;2022-12-18T01:32:01;12.83;;;6.17;;
50821;SDS011;36794;51.212;6.980;2022-12-18T01:34:27;11.50;;;5.90;;
50821;SDS011;36794;51.212;6.980;2022-12-18T01:36:53;15.60;;;6.27;;
50821;SDS011;36794;51.212;6.980;2022-12-18T01:39:19;11.27;;;5.70;;
50821;SDS011;36794;51.212;6.980;2022-12-18T01:41:45;13.13;;;6.37;;
50821;SDS011;36794;51.212;6.980;2022-12-18T01:49:46;12.07;;;5.97;;
50821;SDS011;36794;51.212;6.980;2022-12-18T01:52:13;11.70;;;6.40;;
50821;SDS011;36794;51.212;6.980;2022-12-18T01:54:39;13.00;;;6.60;;
50821;SDS011;36794;51.212;6.980;2022-12-18T01:57:05;14.90;;;5.97;;
50821;SDS011;36794;51.212;6.980;2022-12-18T01:59:31;12.83;;;5.97;;
50821;SDS011;36794;51.212;6.980;2022-12-18T02:01:58;8.90;;;5.20;;
50821;SDS011;36794;51.212;6.980;2022-12-18T02:04:26;12.03;;;5.97;;
50821;SDS011;36794;51.212;6.980;2022-12-18T02:07:14;9.87;;;5.20;;
50821;SDS011;36794;51.212;6.980;2022-12-18T02:09:50;11.27;;;5.77;;
50821;SDS011;36794;51.212;6.980;2022-12-18T02:12:23;11.77;;;5.63;;
50821;SDS011;36794;51.212;6.980;2022-12-18T02:17:22;10.37;;;5.20;;
50821;SDS011;36794;51.212;6.980;2022-12-18T02:22:33;11.53;;;5.67;;
50821;SDS011;36794;51.212;6.980;2022-12-18T02:25:12;12.50;;;5.97;;
50821;SDS011;36794;51.212;6.980;2022-12-18T02:27:39;12.57;;;5.93;;
50821;SDS011;36794;51.212;6.980;2022-12-18T02:30:06;12.10;;;6.60;;
50821;SDS011;36794;51.212;6.980;2022-12-18T02:32:39;13.10;;;5.50;;
50821;SDS011;36794;51.212;6.980;2022-12-18T02:35:07;11.23;;;5.83;;
50821;SDS011;36794;51.212;6.980;2022-12-18T02:37:34;9.73;;;5.63;;
50821;SDS011;36794;51.212;6.980;2022-12-18T02:40:01;11.03;;;5.27;;
50821;SDS011;36794;51.212;6.980;2022-12-18T02:42:28;12.63;;;6.07;;
50821;SDS011;36794;51.212;6.980;2022-12-18T02:44:54;9.70;;;5.40;;
50821;SDS011;36794;51.212;6.980;2022-12-18T02:47:21;11.70;;;5.57;;
50821;SDS011;36794;51.212;6.980;2022-12-18T02:57:40;11.53;;;5.20;;
50821;SDS011;36794;51.212;6.980;2022-12-18T03:00:10;10.90;;;5.17;;
50821;SDS011;36794;51.212;6.980;2022-12-18T03:05:22;10.25;;;4.85;;
50821;SDS011;36794;51.212;6.980;2022-12-18T03:07:55;8.40;;;4.70;;
50821;SDS011;36794;51.212;6.980;2022-12-18T03:10:27;9.77;;;5.20;;
50821;SDS011;36794;51.212;6.980;2022-12-18T03:12:56;8.07;;;4.63;;
50821;SDS011;36794;51.212;6.980;2022-12-18T03:15:31;10.00;;;5.30;;
50821;SDS011;36794;51.212;6.980;2022-12-18T03:18:01;12.63;;;4.80;;
50821;SDS011;36794;51.212;6.980;2022-12-18T03:20:28;7.97;;;4.57;;
50821;SDS011;36794;51.212;6.980;2022-12-18T03:23:02;8.40;;;4.87;;
50821;SDS011;36794;51.212;6.980;2022-12-18T03:25:29;10.77;;;4.70;;
50821;SDS011;36794;51.212;6.980;2022-12-18T03:27:56;11.17;;;5.03;;
50821;SDS011;36794;51.212;6.980;2022-12-18T03:30:24;8.73;;;4.40;;
50821;SDS011;36794;51.212;6.980;2022-12-18T03:32:53;8.07;;;4.60;;
50821;SDS011;36794;51.212;6.980;2022-12-18T03:35:23;7.60;;;4.20;;
50821;SDS011;36794;51.212;6.980;2022-12-18T03:37:52;9.23;;;4.60;;
50821;SDS011;36794;51.212;6.980;2022-12-18T03:40:18;8.70;;;4.70;;
50821;SDS011;36794;51.212;6.980;2022-12-18T03:42:49;10.87;;;4.30;;
50821;SDS011;36794;51.212;6.980;2022-12-18T03:45:27;10.40;;;5.63;;
50821;SDS011;36794;51.212;6.980;2022-12-18T03:50:31;9.10;;;5.07;;
50821;SDS011;36794;51.212;6.980;2022-12-18T03:53:10;8.67;;;4.80;;
50821;SDS011;36794;51.212;6.980;2022-12-18T03:55:38;8.87;;;4.17;;
50821;SDS011;36794;51.212;6.980;2022-12-18T03:58:04;9.70;;;4.87;;
50821;SDS011;36794;51.212;6.980;2022-12-18T04:00:32;8.63;;;4.70;;
50821;SDS011;36794;51.212;6.980;2022-12-18T04:02:59;9.33;;;5.30;;
50821;SDS011;36794;51.212;6.980;2022-12-18T04:05:26;9.77;;;4.10;;
50821;SDS011;36794;51.212;6.980;2022-12-18T04:07:52;10.13;;;4.67;;
50821;SDS011;36794;51.212;6.980;2022-12-18T04:10:19;9.10;;;4.33;;
50821;SDS011;36794;51.212;6.980;2022-12-18T04:12:45;6.93;;;4.23;;
50821;SDS011;36794;51.212;6.980;2022-12-18T04:15:11;10.07;;;4.30;;
50821;SDS011;36794;51.212;6.980;2022-12-18T04:17:38;9.83;;;4.40;;
50821;SDS011;36794;51.212;6.980;2022-12-18T04:20:04;8.13;;;4.10;;
50821;SDS011;36794;51.212;6.980;2022-12-18T04:22:30;10.03;;;4.27;;
50821;SDS011;36794;51.212;6.980;2022-12-18T04:24:56;8.73;;;4.70;;
50821;SDS011;36794;51.212;6.980;2022-12-18T04:27:22;6.77;;;4.10;;
50821;SDS011;36794;51.212;6.980;2022-12-18T04:29:48;8.03;;;4.17;;
50821;SDS011;36794;51.212;6.980;2022-12-18T04:32:14;7.33;;;4.10;;
50821;SDS011;36794;51.212;6.980;2022-12-18T04:34:40;7.57;;;4.07;;
50821;SDS011;36794;51.212;6.980;2022-12-18T04:37:06;7.87;;;3.77;;
50821;SDS011;36794;51.212;6.980;2022-12-18T04:39:32;6.23;;;3.73;;
50821;SDS011;36794;51.212;6.980;2022-12-18T04:41:57;6.33;;;4.20;;
50821;SDS011;36794;51.212;6.980;2022-12-18T04:44:23;6.93;;;3.80;;
50821;SDS011;36794;51.212;6.980;2022-12-18T04:46:49;7.53;;;4.50;;
50821;SDS011;36794;51.212;6.980;2022-12-18T04:49:15;8.40;;;3.87;;
50821;SDS011;36794;51.212;6.980;2022-12-18T04:51:41;7.47;;;3.70;;
50821;SDS011;36794;51.212;6.980;2022-12-18T04:54:07;8.23;;;3.93;;
50821;SDS011;36794;51.212;6.980;2022-12-18T04:56:33;7.07;;;3.60;;
50821;SDS011;36794;51.212;6.980;2022-12-18T04:58:59;6.63;;;3.37;;
50821;SDS011;36794;51.212;6.980;2022-12-18T05:01:25;10.03;;;3.60;;
50821;SDS011;36794;51.212;6.980;2022-12-18T05:03:51;5.87;;;3.70;;
50821;SDS011;36794;51.212;6.980;2022-12-18T05:06:17;7.77;;;3.80;;
50821;SDS011;36794;51.212;6.980;2022-12-18T05:08:43;5.43;;;3.13;;
50821;SDS011;36794;51.212;6.980;2022-12-18T05:11:13;6.27;;;3.20;;
50821;SDS011;36794;51.212;6.980;2022-12-18T05:13:40;7.43;;;3.73;;
50821;SDS011;36794;51.212;6.980;2022-12-18T05:16:07;8.20;;;3.37;;
50821;SDS011;36794;51.212;6.980;2022-12-18T05:18:33;7.10;;;3.77;;
50821;SDS011;36794;51.212;6.980;2022-12-18T05:20:59;6.40;;;3.73;;
50821;SDS011;36794;51.212;6.980;2022-12-18T05:23:25;5.93;;;3.43;;
50821;SDS011;36794;51.212;6.980;2022-12-18T05:25:52;7.10;;;3.40;;
50821;SDS011;36794;51.212;6.980;2022-12-18T05:28:18;7.23;;;3.27;;
50821;SDS011;36794;51.212;6.980;2022-12-18T05:30:53;6.80;;;3.47;;
50821;SDS011;36794;51.212;6.980;2022-12-18T05:35:50;8.50;;;3.87;;
50821;SDS011;36794;51.212;6.980;2022-12-18T05:38:16;6.50;;;3.50;;
50821;SDS011;36794;51.212;6.980;2022-12-18T05:40:42;5.90;;;3.57;;
50821;SDS011;36794;51.212;6.980;2022-12-18T05:43:08;8.53;;;3.77;;
50821;SDS011;36794;51.212;6.980;2022-12-18T05:45:36;7.80;;;4.10;;
50821;SDS011;36794;51.212;6.980;2022-12-18T05:48:03;7.73;;;3.93;;
50821;SDS011;36794;51.212;6.980;2022-12-18T05:50:29;7.57;;;3.77;;
50821;SDS011;36794;51.212;6.980;2022-12-18T05:52:55;8.07;;;3.73;;
50821;SDS011;36794;51.212;6.980;2022-12-18T05:55:20;9.10;;;4.20;;
50821;SDS011;36794;51.212;6.980;2022-12-18T05:57:46;9.13;;;4.50;;
50821;SDS011;36794;51.212;6.980;2022-12-18T06:00:13;8.83;;;3.67;;
50821;SDS011;36794;51.212;6.980;2022-12-18T06:02:39;10.00;;;4.63;;
50821;SDS011;36794;51.212;6.980;2022-12-18T06:05:05;8.70;;;3.97;;
50821;SDS011;36794;51.212;6.980;2022-12-18T06:07:31;8.73;;;4.30;;
50821;SDS011;36794;51.212;6.980;2022-12-18T06:09:57;10.87;;;5.17;;
50821;SDS011;36794;51.212;6.980;2022-12-18T06:12:22;7.00;;;3.90;;
50821;SDS011;36794;51.212;6.980;2022-12-18T06:14:50;7.20;;;4.13;;
50821;SDS011;36794;51.212;6.980;2022-12-18T06:17:15;10.47;;;4.30;;
50821;SDS011;36794;51.212;6.980;2022-12-18T06:19:41;10.13;;;4.63;;
50821;SDS011;36794;51.212;6.980;2022-12-18T06:22:07;12.87;;;5.23;;
50821;SDS011;36794;51.212;6.980;2022-12-18T06:24:33;8.90;;;4.27;;
50821;SDS011;36794;51.212;6.980;2022-12-18T06:26:59;11.93;;;5.23;;
50821;SDS011;36794;51.212;6.980;2022-12-18T06:29:25;8.83;;;4.50;;
50821;SDS011;36794;51.212;6.980;2022-12-18T06:31:51;8.33;;;4.57;;
50821;SDS011;36794;51.212;6.980;2022-12-18T06:34:17;8.37;;;4.43;;
50821;SDS011;36794;51.212;6.980;2022-12-18T06:36:43;8.57;;;4.83;;
50821;SDS011;36794;51.212;6.980;2022-12-18T06:39:09;8.47;;;4.30;;
50821;SDS011;36794;51.212;6.980;2022-12-18T06:41:35;10.77;;;4.63;;
50821;SDS011;36794;51.212;6.980;2022-12-18T06:44:00;8.60;;;4.53;;
50821;SDS011;36794;51.212;6.980;2022-12-18T06:46:26;8.17;;;4.30;;
50821;SDS011;36794;51.212;6.980;2022-12-18T06:48:52;12.03;;;4.73;;
50821;SDS011;36794;51.212;6.980;2022-12-18T06:51:19;9.20;;;4.67;;
50821;SDS011;36794;51.212;6.980;2022-12-18T06:53:45;8.70;;;4.23;;
50821;SDS011;36794;51.212;6.980;2022-12-18T06:56:11;7.93;;;4.57;;
50821;SDS011;36794;51.212;6.980;2022-12-18T06:58:38;9.93;;;4.60;;
50821;SDS011;36794;51.212;6.980;2022-12-18T07:01:05;8.23;;;4.93;;
50821;SDS011;36794;51.212;6.980;2022-12-18T07:03:31;8.00;;;4.43;;
50821;SDS011;36794;51.212;6.980;2022-12-18T07:05:57;16.50;;;4.53;;
50821;SDS011;36794;51.212;6.980;2022-12-18T07:08:23;9.93;;;4.47;;
50821;SDS011;36794;51.212;6.980;2022-12-18T07:10:49;8.27;;;4.53;;
50821;SDS011;36794;51.212;6.980;2022-12-18T07:13:15;11.03;;;5.30;;
50821;SDS011;36794;51.212;6.980;2022-12-18T07:15:42;7.10;;;4.23;;
50821;SDS011;36794;51.212;6.980;2022-12-18T07:18:08;9.47;;;4.53;;
50821;SDS011;36794;51.212;6.980;2022-12-18T07:20:34;8.13;;;4.67;;
50821;SDS011;36794;51.212;6.980;2022-12-18T07:23:01;10.27;;;4.80;;
50821;SDS011;36794;51.212;6.980;2022-12-18T07:25:27;12.27;;;4.63;;
50821;SDS011;36794;51.212;6.980;2022-12-18T07:27:54;9.63;;;4.83;;
50821;SDS011;36794;51.212;6.980;2022-12-18T07:30:19;9.30;;;4.33;;
50821;SDS011;36794;51.212;6.980;2022-12-18T07:32:45;10.77;;;5.10;;
50821;SDS011;36794;51.212;6.980;2022-12-18T07:35:11;9.77;;;4.93;;
50821;SDS011;36794;51.212;6.980;2022-12-18T07:37:37;10.07;;;5.07;;
50821;SDS011;36794;51.212;6.980;2022-12-18T07:40:03;12.00;;;4.97;;
50821;SDS011;36794;51.212;6.980;2022-12-18T07:42:29;10.40;;;5.13;;
50821;SDS011;36794;51.212;6.980;2022-12-18T07:44:55;9.83;;;5.13;;
50821;SDS011;36794;51.212;6.980;2022-12-18T07:47:22;9.97;;;4.80;;
50821;SDS011;36794;51.212;6.980;2022-12-18T07:49:48;10.63;;;5.53;;
50821;SDS011;36794;51.212;6.980;2022-12-18T07:52:14;10.50;;;4.80;;
50821;SDS011;36794;51.212;6.980;2022-12-18T07:54:40;11.50;;;5.57;;
50821;SDS011;36794;51.212;6.980;2022-12-18T07:57:06;11.60;;;5.73;;
50821;SDS011;36794;51.212;6.980;2022-12-18T07:59:32;11.80;;;6.27;;
50821;SDS011;36794;51.212;6.980;2022-12-18T08:01:58;10.30;;;4.97;;
50821;SDS011;36794;51.212;6.980;2022-12-18T08:04:24;11.03;;;6.17;;
50821;SDS011;36794;51.212;6.980;2022-12-18T08:06:50;10.80;;;5.67;;
50821;SDS011;36794;51.212;6.980;2022-12-18T08:09:16;10.60;;;5.43;;
50821;SDS011;36794;51.212;6.980;2022-12-18T08:11:42;13.73;;;6.13;;
50821;SDS011;36794;51.212;6.980;2022-12-18T08:14:08;9.83;;;5.13;;
50821;SDS011;36794;51.212;6.980;2022-12-18T08:16:34;11.43;;;5.97;;
50821;SDS011;36794;51.212;6.980;2022-12-18T08:19:00;11.00;;;5.23;;
50821;SDS011;36794;51.212;6.980;2022-12-18T08:21:27;11.57;;;5.67;;
50821;SDS011;36794;51.212;6.980;2022-12-18T08:23:55;10.80;;;5.50;;
50821;SDS011;36794;51.212;6.980;2022-12-18T08:26:22;10.60;;;5.37;;
50821;SDS011;36794;51.212;6.980;2022-12-18T08:28:48;10.27;;;5.30;;
50821;SDS011;36794;51.212;6.980;2022-12-18T08:31:14;11.90;;;5.63;;
50821;SDS011;36794;51.212;6.980;2022-12-18T08:33:41;9.83;;;5.40;;
50821;SDS011;36794;51.212;6.980;2022-12-18T08:36:08;12.07;;;4.97;;
50821;SDS011;36794;51.212;6.980;2022-12-18T08:38:34;12.47;;;5.37;;
50821;SDS011;36794;51.212;6.980;2022-12-18T08:43:26;10.47;;;5.07;;
50821;SDS011;36794;51.212;6.980;2022-12-18T08:46:11;9.00;;;5.65;;
50821;SDS011;36794;51.212;6.980;2022-12-18T08:48:37;9.60;;;5.07;;
50821;SDS011;36794;51.212;6.980;2022-12-18T08:51:03;10.07;;;5.50;;
50821;SDS011;36794;51.212;6.980;2022-12-18T08:53:29;10.57;;;5.20;;
50821;SDS011;36794;51.212;6.980;2022-12-18T08:55:56;11.90;;;5.10;;
50821;SDS011;36794;51.212;6.980;2022-12-18T08:58:22;11.27;;;5.33;;
50821;SDS011;36794;51.212;6.980;2022-12-18T09:00:48;10.47;;;5.07;;
50821;SDS011;36794;51.212;6.980;2022-12-18T09:03:14;9.10;;;4.83;;
50821;SDS011;36794;51.212;6.980;2022-12-18T09:05:41;8.90;;;4.83;;
50821;SDS011;36794;51.212;6.980;2022-12-18T09:08:07;10.10;;;5.53;;
50821;SDS011;36794;51.212;6.980;2022-12-18T09:10:33;11.07;;;5.63;;
50821;SDS011;36794;51.212;6.980;2022-12-18T09:12:59;10.00;;;4.73;;
50821;SDS011;36794;51.212;6.980;2022-12-18T09:15:25;12.17;;;4.70;;
50821;SDS011;36794;51.212;6.980;2022-12-18T09:17:51;9.33;;;4.60;;
50821;SDS011;36794;51.212;6.980;2022-12-18T09:20:17;10.73;;;5.20;;
50821;SDS011;36794;51.212;6.980;2022-12-18T09:22:43;9.47;;;5.50;;
50821;SDS011;36794;51.212;6.980;2022-12-18T09:25:09;9.40;;;5.20;;
50821;SDS011;36794;51.212;6.980;2022-12-18T09:27:35;8.27;;;4.63;;
50821;SDS011;36794;51.212;6.980;2022-12-18T09:30:02;9.47;;;5.30;;
50821;SDS011;36794;51.212;6.980;2022-12-18T09:32:28;9.27;;;5.00;;
50821;SDS011;36794;51.212;6.980;2022-12-18T09:34:54;9.07;;;5.13;;
50821;SDS011;36794;51.212;6.980;2022-12-18T09:37:20;10.57;;;5.07;;
50821;SDS011;36794;51.212;6.980;2022-12-18T09:39:46;9.77;;;4.47;;
50821;SDS011;36794;51.212;6.980;2022-12-18T09:42:20;8.23;;;4.47;;
50821;SDS011;36794;51.212;6.980;2022-12-18T09:44:53;7.82;;;4.63;;
50821;SDS011;36794;51.212;6.980;2022-12-18T09:47:27;8.67;;;4.73;;
50821;SDS011;36794;51.212;6.980;2022-12-18T09:49:58;11.20;;;5.10;;
50821;SDS011;36794;51.212;6.980;2022-12-18T09:52:26;8.07;;;4.67;;
50821;SDS011;36794;51.212;6.980;2022-12-18T09:55:18;9.03;;;4.90;;
50821;SDS011;36794;51.212;6.980;2022-12-18T09:57:42;9.83;;;5.07;;
50821;SDS011;36794;51.212;6.980;2022-12-18T10:00:15;10.07;;;5.13;;
50821;SDS011;36794;51.212;6.980;2022-12-18T10:02:42;8.83;;;5.37;;
50821;SDS011;36794;51.212;6.980;2022-12-18T10:05:12;9.30;;;4.87;;
50821;SDS011;36794;51.212;6.980;2022-12-18T10:07:58;10.17;;;5.20;;
50821;SDS011;36794;51.212;6.980;2022-12-18T10:10:32;11.67;;;5.03;;
50821;SDS011;36794;51.212;6.980;2022-12-18T10:17:59;10.20;;;5.27;;
50821;SDS011;36794;51.212;6.980;2022-12-18T10:23:08;10.87;;;5.57;;
50821;SDS011;36794;51.212;6.980;2022-12-18T10:28:23;10.05;;;5.13;;
50821;SDS011;36794;51.212;6.980;2022-12-18T10:30:49;10.03;;;5.27;;
50821;SDS011;36794;51.212;6.980;2022-12-18T10:33:19;8.70;;;5.03;;
50821;SDS011;36794;51.212;6.980;2022-12-18T10:35:45;9.03;;;5.37;;
50821;SDS011;36794;51.212;6.980;2022-12-18T10:40:52;14.37;;;6.27;;
50821;SDS011;36794;51.212;6.980;2022-12-18T10:46:04;11.63;;;5.90;;
50821;SDS011;36794;51.212;6.980;2022-12-18T10:48:31;10.87;;;5.10;;
50821;SDS011;36794;51.212;6.980;2022-12-18T10:50:58;12.40;;;5.57;;
50821;SDS011;36794;51.212;6.980;2022-12-18T10:53:25;11.13;;;5.47;;
50821;SDS011;36794;51.212;6.980;2022-12-18T10:55:52;9.53;;;5.53;;
50821;SDS011;36794;51.212;6.980;2022-12-18T11:01:02;10.10;;;5.73;;
50821;SDS011;36794;51.212;6.980;2022-12-18T11:06:05;9.80;;;5.60;;
50821;SDS011;36794;51.212;6.980;2022-12-18T11:08:31;10.07;;;5.87;;
50821;SDS011;36794;51.212;6.980;2022-12-18T11:10:57;10.77;;;5.63;;
50821;SDS011;36794;51.212;6.980;2022-12-18T11:13:24;9.90;;;5.17;;
50821;SDS011;36794;51.212;6.980;2022-12-18T11:15:52;9.87;;;5.63;;
50821;SDS011;36794;51.212;6.980;2022-12-18T11:18:19;10.83;;;5.43;;
50821;SDS011;36794;51.212;6.980;2022-12-18T11:21:19;13.63;;;6.23;;
50821;SDS011;36794;51.212;6.980;2022-12-18T11:23:44;10.43;;;5.93;;
50821;SDS011;36794;51.212;6.980;2022-12-18T11:26:11;9.70;;;6.07;;
50821;SDS011;36794;51.212;6.980;2022-12-18T11:33:37;13.23;;;6.03;;
50821;SDS011;36794;51.212;6.980;2022-12-18T11:36:05;11.03;;;5.70;;
50821;SDS011;36794;51.212;6.980;2022-12-18T11:38:34;10.50;;;5.80;;
50821;SDS011;36794;51.212;6.980;2022-12-18T11:43:52;11.07;;;6.33;;
50821;SDS011;36794;51.212;6.980;2022-12-18T11:46:23;9.80;;;6.00;;
50821;SDS011;36794;51.212;6.980;2022-12-18T11:51:37;13.10;;;6.28;;
50821;SDS011;36794;51.212;6.980;2022-12-18T11:54:13;10.40;;;5.83;;
50821;SDS011;36794;51.212;6.980;2022-12-18T11:56:44;10.87;;;6.63;;
50821;SDS011;36794;51.212;6.980;2022-12-18T12:02:33;11.57;;;6.60;;
50821;SDS011;36794;51.212;6.980;2022-12-18T12:05:25;11.57;;;6.70;;
50821;SDS011;36794;51.212;6.980;2022-12-18T12:07:54;10.90;;;6.40;;
50821;SDS011;36794;51.212;6.980;2022-12-18T12:10:32;15.45;;;6.82;;
50821;SDS011;36794;51.212;6.980;2022-12-18T12:15:48;15.00;;;6.80;;
50821;SDS011;36794;51.212;6.980;2022-12-18T12:21:07;15.75;;;7.25;;
50821;SDS011;36794;51.212;6.980;2022-12-18T12:26:03;12.13;;;6.57;;
50821;SDS011;36794;51.212;6.980;2022-12-18T12:28:47;11.97;;;7.13;;
50821;SDS011;36794;51.212;6.980;2022-12-18T12:31:25;13.20;;;7.40;;
50821;SDS011;36794;51.212;6.980;2022-12-18T12:36:22;15.43;;;7.53;;
50821;SDS011;36794;51.212;6.980;2022-12-18T12:38:55;14.13;;;8.07;;
50821;SDS011;36794;51.212;6.980;2022-12-18T12:41:23;14.87;;;8.00;;
50821;SDS011;36794;51.212;6.980;2022-12-18T12:44:13;17.27;;;8.20;;
50821;SDS011;36794;51.212;6.980;2022-12-18T12:46:40;15.53;;;8.30;;
50821;SDS011;36794;51.212;6.980;2022-12-18T12:49:14;16.17;;;8.07;;
50821;SDS011;36794;51.212;6.980;2022-12-18T12:51:41;14.63;;;8.03;;
50821;SDS011;36794;51.212;6.980;2022-12-18T12:54:16;16.43;;;8.23;;
50821;SDS011;36794;51.212;6.980;2022-12-18T12:59:16;18.90;;;9.47;;
50821;SDS011;36794;51.212;6.980;2022-12-18T13:04:42;16.50;;;9.03;;
50821;SDS011;36794;51.212;6.980;2022-12-18T13:07:12;16.27;;;9.13;;
50821;SDS011;36794;51.212;6.980;2022-12-18T13:12:24;15.13;;;7.93;;
50821;SDS011;36794;51.212;6.980;2022-12-18T13:15:13;15.77;;;8.88;;
50821;SDS011;36794;51.212;6.980;2022-12-18T13:17:45;16.43;;;9.87;;
50821;SDS011;36794;51.212;6.980;2022-12-18T13:20:12;17.77;;;10.00;;
50821;SDS011;36794;51.212;6.980;2022-12-18T13:22:43;16.73;;;9.97;;
50821;SDS011;36794;51.212;6.980;2022-12-18T13:27:57;17.88;;;10.30;;
50821;SDS011;36794;51.212;6.980;2022-12-18T13:35:42;17.95;;;9.80;;
50821;SDS011;36794;51.212;6.980;2022-12-18T13:38:31;20.63;;;10.93;;
50821;SDS011;36794;51.212;6.980;2022-12-18T13:40:59;18.27;;;10.23;;
50821;SDS011;36794;51.212;6.980;2022-12-18T13:46:24;23.50;;;11.67;;
50821;SDS011;36794;51.212;6.980;2022-12-18T13:51:16;20.00;;;11.57;;
50821;SDS011;36794;51.212;6.980;2022-12-18T13:53:44;21.07;;;11.53;;
50821;SDS011;36794;51.212;6.980;2022-12-18T13:56:16;21.50;;;10.93;;
50821;SDS011;36794;51.212;6.980;2022-12-18T13:58:42;20.00;;;11.33;;
50821;SDS011;36794;51.212;6.980;2022-12-18T14:01:41;19.57;;;11.20;;
50821;SDS011;36794;51.212;6.980;2022-12-18T14:04:08;21.97;;;11.40;;
50821;SDS011;36794;51.212;6.980;2022-12-18T14:06:34;24.77;;;12.32;;
50821;SDS011;36794;51.212;6.980;2022-12-18T14:09:00;21.80;;;11.73;;
50821;SDS011;36794;51.212;6.980;2022-12-18T14:11:27;17.97;;;10.67;;
50821;SDS011;36794;51.212;6.980;2022-12-18T14:13:54;22.30;;;11.60;;
50821;SDS011;36794;51.212;6.980;2022-12-18T14:16:20;22.47;;;11.80;;
50821;SDS011;36794;51.212;6.980;2022-12-18T14:18:48;22.90;;;11.47;;
50821;SDS011;36794;51.212;6.980;2022-12-18T14:21:24;24.33;;;12.03;;
50821;SDS011;36794;51.212;6.980;2022-12-18T14:24:04;24.40;;;11.00;;
50821;SDS011;36794;51.212;6.980;2022-12-18T14:26:31;20.67;;;11.33;;
50821;SDS011;36794;51.212;6.980;2022-12-18T14:28:59;20.57;;;11.20;;
50821;SDS011;36794;51.212;6.980;2022-12-18T14:31:29;21.73;;;11.77;;
50821;SDS011;36794;51.212;6.980;2022-12-18T14:33:55;19.37;;;10.63;;
50821;SDS011;36794;51.212;6.980;2022-12-18T14:36:25;22.13;;;11.17;;
50821;SDS011;36794;51.212;6.980;2022-12-18T14:38:52;20.70;;;11.47;;
50821;SDS011;36794;51.212;6.980;2022-12-18T14:41:19;21.47;;;11.13;;
50821;SDS011;36794;51.212;6.980;2022-12-18T14:43:47;18.83;;;11.50;;
50821;SDS011;36794;51.212;6.980;2022-12-18T14:46:26;21.83;;;11.27;;
50821;SDS011;36794;51.212;6.980;2022-12-18T14:48:53;20.33;;;10.30;;
50821;SDS011;36794;51.212;6.980;2022-12-18T14:51:20;21.80;;;11.20;;
50821;SDS011;36794;51.212;6.980;2022-12-18T14:53:53;24.70;;;12.40;;
50821;SDS011;36794;51.212;6.980;2022-12-18T14:58:47;20.43;;;11.47;;
50821;SDS011;36794;51.212;6.980;2022-12-18T15:01:20;24.73;;;11.60;;
50821;SDS011;36794;51.212;6.980;2022-12-18T15:03:47;20.00;;;11.40;;
50821;SDS011;36794;51.212;6.980;2022-12-18T15:06:17;22.43;;;12.07;;
50821;SDS011;36794;51.212;6.980;2022-12-18T15:08:43;19.87;;;11.10;;
50821;SDS011;36794;51.212;6.980;2022-12-18T15:13:54;19.50;;;11.73;;
50821;SDS011;36794;51.212;6.980;2022-12-18T15:16:20;23.13;;;11.07;;
50821;SDS011;36794;51.212;6.980;2022-12-18T15:18:46;20.47;;;11.50;;
50821;SDS011;36794;51.212;6.980;2022-12-18T15:21:17;23.57;;;12.53;;
50821;SDS011;36794;51.212;6.980;2022-12-18T15:26:09;21.67;;;12.33;;
50821;SDS011;36794;51.212;6.980;2022-12-18T15:33:44;24.43;;;11.77;;
50821;SDS011;36794;51.212;6.980;2022-12-18T15:36:12;22.40;;;12.47;;
50821;SDS011;36794;51.212;6.980;2022-12-18T15:38:38;24.30;;;13.07;;
50821;SDS011;36794;51.212;6.980;2022-12-18T15:41:04;25.57;;;12.40;;
50821;SDS011;36794;51.212;6.980;2022-12-18T15:43:30;25.97;;;13.80;;
50821;SDS011;36794;51.212;6.980;2022-12-18T15:46:11;26.27;;;13.40;;
50821;SDS011;36794;51.212;6.980;2022-12-18T15:48:39;24.57;;;13.23;;
50821;SDS011;36794;51.212;6.980;2022-12-18T15:51:08;26.23;;;13.80;;
50821;SDS011;36794;51.212;6.980;2022-12-18T15:53:35;26.47;;;13.47;;
50821;SDS011;36794;51.212;6.980;2022-12-18T15:56:01;36.37;;;14.13;;
50821;SDS011;36794;51.212;6.980;2022-12-18T15:58:46;28.55;;;14.27;;
50821;SDS011;36794;51.212;6.980;2022-12-18T16:01:25;29.10;;;14.47;;
50821;SDS011;36794;51.212;6.980;2022-12-18T16:03:51;24.27;;;14.03;;
50821;SDS011;36794;51.212;6.980;2022-12-18T16:06:18;23.70;;;13.20;;
50821;SDS011;36794;51.212;6.980;2022-12-18T16:08:44;25.13;;;13.50;;
50821;SDS011;36794;51.212;6.980;2022-12-18T16:11:29;28.33;;;13.37;;
50821;SDS011;36794;51.212;6.980;2022-12-18T16:14:19;29.10;;;14.43;;
50821;SDS011;36794;51.212;6.980;2022-12-18T16:16:45;27.33;;;15.07;;
50821;SDS011;36794;51.212;6.980;2022-12-18T16:19:11;25.67;;;14.20;;
50821;SDS011;36794;51.212;6.980;2022-12-18T16:21:37;30.53;;;14.23;;
50821;SDS011;36794;51.212;6.980;2022-12-18T16:24:03;30.43;;;15.30;;
50821;SDS011;36794;51.212;6.980;2022-12-18T16:26:29;26.67;;;14.40;;
50821;SDS011;36794;51.212;6.980;2022-12-18T16:28:55;29.30;;;15.20;;
50821;SDS011;36794;51.212;6.980;2022-12-18T16:31:22;30.20;;;14.33;;